Fairborn, OH (45324)

5:05 PM EST on February 08, 2016 (GMT -0500)
Byron | | Change Station
CLOSE
Current Station
Personal Weather Station
Location: Fairborn, OH
Elevation: 906 ft
Nearby Weather Stations

Elev 906 ft 39.78 °N, 83.99 °W | Updated 15 seconds ago

Overcast
Overcast
36.3 °F
Feels Like 34 °F
N
3.4
Wind Variable Wind from NE
Gusts 4.9 mph

Today
High -- | Low -- °F
--% Chance of Precip.
Yesterday
High -- | Low -- °F
Precip. -- in
Pressure 29.65 in
Visibility 7.0 miles
Clouds Scattered Clouds 1300 ft
Mostly Cloudy 2100 ft
Mostly Cloudy 3500 ft
Windchill 34 °F
Dew Point 32 °F
Humidity 84%
Rainfall 0.11 in
Snow Depth Not available.
7:37 AM 6:03 PM
New Moon, 0% visible
METAR KFFO 082158Z VRB01KT 7SM -SN SCT013 BKN021 BKN035 01/00 A2962 RMK AO2A SLP039 P0000 T00141003
Pressure 29.65 in
Visibility 7.0 miles
Clouds Scattered Clouds 1300 ft
Mostly Cloudy 2100 ft
Mostly Cloudy 3500 ft
Windchill 34 °F
Dew Point 32 °F
Humidity 84%
Rainfall 0.11 in
Snow Depth Not available.
7:37 AM 6:03 PM
New Moon, 0% visible
METAR KFFO 082158Z VRB01KT 7SM -SN SCT013 BKN021 BKN035 01/00 A2962 RMK AO2A SLP039 P0000 T00141003

10-Day Weather Forecast

Almanac

Astronomy

Feb. 08, 2016 Rise Set
Actual Time
Civil Twilight
Nautical Twilight
Astronomical Twilight
Moon
Length of Visible Light
Length of Day
Tomorrow will be .
, % of the Moon is Illuminated

Today's Extremes

State Highs State Lows

Community

WunderPhotos

Upload Photos

1,891,511 photos uploaded!

WunderBlog® & News

Nearby

Air Quality

  Air Quality AQ Index Pollutant
Not available.

Snow Depth

Station Depth Elevation

Earthquake Activity

City Distance Mag. Time & Date
Minimum magnitude displayed is 2.5.

Coastal Water Temperatures

Place Temperature

Stations

Nearby Weather Stations

Station Location Temp. Windchill Dew Point Humidity Wind Precip. Elev Updated Type
                   

Watches & Warnings

There are currently no watches in effect.